Detall de PIREP

Printer-friendly versionPDF version

[2012/04/14 16:04:00]
Flight IATA:CT1006
Pilot Number:037
Company ICAO:CAT
Aircraft Type:B752/E
PAX:85
Departing Airport: LTBA
Destination Airport: LGAV
Alternate Airport:LGTS
Online: VATSIM
Route:BIG UG8 AMANI UN604 KEPIR

Flight Level:F340
No Slew and time accel
No pause
Crash detect
Detect pilot in Cockpit between each 30 and 45 minutes
16:04 Zero fuel Weight: 154462 Lbs, Fuel Weight: 19980 Lbs
16:04 VATSIM:LTBA 141520Z 21003KT 160V270 5000 -SHRA FEW025CB BKN030 BKN080 14/14 Q1002 RESHRA TEMPO TL1600 2500 TSRA
16:04 VATSIM:LGAV 141520Z 21011KT 9999 FEW020 BKN080 18/12 Q0998 NOSIG
16:15 Parking Brakes off
16:27 Take-off
16:27 Take off Weight: 172899 Lbs
16:27 Wind: 195º @ 006 Knots Heading: 179º
16:27 POS N40º 58´ 48´´ E028º 48´ 31´´
16:27 Gear Up: 210 Knots
16:27 Flaps:2 at 210 Knots
16:27 Flaps:1 at 222 Knots
16:27 Flaps:0 at 220 Knots
16:41 TOC
16:41 Fuel Weight: 14980 Lb
16:42 Wind:187º@038 Knots Heading: 211º Ground Speed: 432 Knots Altitude 33562 ft
16:56 TOD
16:56 Fuel Weight: 13370 Lb
16:57 Wind:195º@049 Knots Heading: 231º Ground Speed: 410 Knots Altitude 32572 ft
17:12 Wind:203º@023 Knots Heading: 215º Ground Speed: 242 Knots Altitude 7053 ft
17:19 Flaps:1 at 205 Knots
17:19 Flaps:2 at 189 Knots
17:20 Flaps:3 at 204 Knots
17:20 Gear Down: 203 Knots
17:21 Flaps:4 at 163 Knots
17:21 Flaps:5 at 160 Knots
17:21 Flaps:6 at 154 Knots
17:21 TouchDown:Rate -132 ft/min Speed: 138 Knots
17:22 VATSIM:LGAV 141650Z 21011KT 9999 FEW020 SCT060 BKN180 17/09 Q0998 NOSIG
17:22 Land
17:22 Wind:207º@011 Knots
17:22 Heading: 216º
17:22 Flight Duration: 00:55
17:22 Landing Weight: 166277 Lbs
17:22 POS N37º 56´ 25´´ E023º 57´ 33´´
17:24 Parking brakes on
17:24 Block to Block Duration: 01:09
17:24 Final Fuel: 11578 Lbls
17:24 Spent Fuel: 8401 Lbls
17:24 Flight Length: 203 NM
17:24 TOD Land Length: 108 NM

Exportar CSV

Powered by Drupal - Modified by Danger4k